Luning, Nevada
Current Conditions -  °F | °C
As of 5:56 AM on Thursday 27 Nov 2014 (Local Time) from KTPH Reporting Station
Clear Clear  
Wind Chill: 32°   Ceiling: Unl
Heat Index: 37°   Visibility: 10mi
Dew Point: 17°   Wind: 7mph
Humidity: 44%   Direction: 10°N
Pressure: 30.37"   Gusts: NA
Location:  38.51°N, 118.18°W
Report Text: KTPH 271356Z AUTO 01006KT 10SM CLR 03/M08 A3037 RMK AO2 SLP279 T00281083
Loading
Personal Weather Stations






























Interactive Weather Map New forecast layout! Learn more

10-Day Weather Forecast

Advertisements
Track Severe Weather on mobile